Time;durP1;ratioP1;P1;durP2;ratioP2;P2;SDS_P1;SDS_P2;PMS_P1;PMS_P2;Temp;Humidity;BMP_temperature;BMP_pressure;BME280_temperature;BME280_humidity;BME280_pressure;Samples;Min_cycle;Max_cycle;Signal;HPM_P1;HPM_P2
2023/01/04 00:14:05;;;;;;;19.37;10.17;;;;;;;9.85;100.00;100736.66;31368224;28;20516;-78
2023/01/04 00:29:11;;;;;;;19.70;10.00;;;;;;;10.09;100.00;100734.16;31396375;28;20057;-78
2023/01/04 00:44:14;;;;;;;23.47;11.67;;;;;;;10.12;100.00;100736.09;31386194;28;20080;-79
2023/01/04 00:59:18;;;;;;;19.23;10.67;;;;;;;10.10;100.00;100746.56;31342595;28;20103;-77
2023/01/04 01:14:23;;;;;;;20.07;9.70;;;;;;;9.91;100.00;100739.72;31366067;28;20052;-79
2023/01/04 01:29:25;;;;;;;21.80;10.13;;;;;;;9.64;100.00;100742.22;31343739;28;20490;-78
2023/01/04 01:44:45;;;;;;;18.37;10.17;;;;;;;9.71;100.00;100725.88;31350837;28;20100;-78
2023/01/04 01:59:51;;;;;;;18.73;10.73;;;;;;;9.46;100.00;100733.38;31375099;28;20099;-78
2023/01/04 02:14:53;;;;;;;24.30;10.17;;;;;;;9.50;100.00;100726.00;31385559;28;20053;-77
2023/01/04 02:30:04;;;;;;;19.47;8.50;;;;;;;9.49;100.00;100716.34;31342259;28;20041;-78
2023/01/04 02:45:07;;;;;;;16.93;8.70;;;;;;;9.36;100.00;100739.63;31396531;28;20136;-78
2023/01/04 03:00:28;;;;;;;16.77;8.60;;;;;;;9.21;100.00;100728.84;31377768;28;20041;-77
2023/01/04 03:15:35;;;;;;;17.53;7.90;;;;;;;9.13;100.00;100738.19;31334417;28;20056;-78
2023/01/04 04:01:56;;;;;;;10.73;4.93;;;;;;;8.61;100.00;100763.44;31369078;28;20053;-77
2023/01/04 04:16:58;;;;;;;9.13;5.33;;;;;;;8.48;100.00;100761.16;31362295;28;20044;-78
2023/01/04 04:32:00;;;;;;;10.37;5.17;;;;;;;8.37;100.00;100757.66;31375013;28;20073;-78
2023/01/04 04:47:02;;;;;;;7.57;3.97;;;;;;;8.31;100.00;100759.19;31408949;28;20064;-79
2023/01/04 05:02:04;;;;;;;8.67;4.07;;;;;;;8.30;100.00;100749.50;31422380;28;20465;-77
2023/01/04 05:17:06;;;;;;;7.23;3.77;;;;;;;8.35;100.00;100751.88;31395441;28;20459;-77
2023/01/04 05:32:08;;;;;;;8.80;3.80;;;;;;;8.29;100.00;100764.19;31367508;28;20053;-78
2023/01/04 05:47:10;;;;;;;8.63;4.10;;;;;;;8.26;100.00;100770.41;31348140;28;20057;-79
2023/01/04 06:02:18;;;;;;;11.33;5.67;;;;;;;8.29;100.00;100796.66;31373760;28;20076;-75
2023/01/04 06:17:20;;;;;;;11.47;4.87;;;;;;;8.12;100.00;100802.81;31381885;28;20140;-77
2023/01/04 06:48:46;;;;;;;11.97;5.77;;;;;;;8.19;100.00;100833.38;31276726;28;20049;-78
2023/01/04 07:03:48;;;;;;;14.73;5.77;;;;;;;8.33;100.00;100842.69;31342012;28;20045;-78
2023/01/04 07:18:50;;;;;;;9.87;5.20;;;;;;;8.47;100.00;100846.19;31341740;28;20127;-77
2023/01/04 07:33:52;;;;;;;14.63;6.17;;;;;;;8.80;100.00;100855.84;31352912;28;20057;-76
2023/01/04 07:48:54;;;;;;;10.50;6.13;;;;;;;9.06;100.00;100849.25;31344481;28;20044;-76
2023/01/04 08:03:56;;;;;;;9.63;5.37;;;;;;;8.93;100.00;100867.06;31347008;28;20090;-79
2023/01/04 08:19:02;;;;;;;10.83;5.60;;;;;;;9.62;100.00;100877.38;31374347;28;20053;-79
2023/01/04 08:34:06;;;;;;;11.67;5.50;;;;;;;10.37;94.45;100858.81;31350723;28;20048;-76
2023/01/04 08:49:08;;;;;;;12.97;5.77;;;;;;;11.53;87.83;100850.75;31360290;28;20057;-75
2023/01/04 09:04:10;;;;;;;8.50;5.10;;;;;;;11.13;86.72;100849.63;31343318;28;20052;-81
2023/01/04 09:19:24;;;;;;;11.30;5.07;;;;;;;13.40;69.58;100829.22;31382947;28;20463;-87
2023/01/04 09:34:26;;;;;;;9.10;4.17;;;;;;;13.89;64.58;100811.03;31391056;28;20065;-84
2023/01/04 09:49:50;;;;;;;7.63;4.00;;;;;;;15.00;57.56;100811.88;31409857;28;20060;-79
2023/01/04 10:04:53;;;;;;;5.67;3.80;;;;;;;15.60;49.92;100812.19;31398405;28;20107;-81
2023/01/04 10:20:03;;;;;;;4.87;2.80;;;;;;;14.91;52.55;100798.06;31413139;28;20049;-89
2023/01/04 10:35:32;;;;;;;7.57;4.10;;;;;;;14.43;54.77;100793.44;31421568;28;20045;-81
2023/01/04 10:50:37;;;;;;;6.23;2.90;;;;;;;13.07;60.06;100789.31;31395279;28;20057;-86
2023/01/04 11:05:48;;;;;;;5.53;3.60;;;;;;;14.85;50.10;100781.44;31384158;28;20053;-78
2023/01/04 11:20:50;;;;;;;3.67;2.60;;;;;;;15.44;48.91;100784.88;31352863;28;20041;-77
2023/01/04 11:35:57;;;;;;;4.17;2.23;;;;;;;13.89;53.81;100783.75;31366335;28;20061;-79
2023/01/04 11:51:00;;;;;;;4.37;2.33;;;;;;;12.56;59.33;100773.09;31373108;28;20060;-82
2023/01/04 12:06:36;;;;;;;5.63;2.43;;;;;;;10.98;68.40;100772.16;31403310;28;20109;-79
2023/01/04 12:21:39;;;;;;;9.47;3.57;;;;;;;10.28;70.03;100806.13;31365928;28;20127;-74
2023/01/04 12:36:44;;;;;;;4.70;2.57;;;;;;;10.00;74.41;100807.84;31367455;28;20482;-73
2023/01/04 12:51:46;;;;;;;7.77;3.23;;;;;;;9.68;77.34;100824.31;31346401;28;20193;-75
2023/01/04 13:07:19;;;;;;;2.73;1.83;;;;;;;9.43;74.33;100846.06;31388432;28;20753;-75
2023/01/04 16:41:26;;;;;;;5.40;2.30;;;;;;;7.75;84.30;100920.13;31846536;27;21559;-78
2023/01/04 16:56:30;;;;;;;4.93;3.00;;;;;;;7.73;84.51;100917.03;31694257;28;20054;-77
2023/01/04 17:11:34;;;;;;;3.50;2.07;;;;;;;7.38;83.76;100925.69;31734330;28;20378;-76
2023/01/04 17:26:56;;;;;;;3.53;1.87;;;;;;;7.39;80.89;100923.78;31702559;28;20408;-82
2023/01/04 17:41:59;;;;;;;3.07;1.83;;;;;;;7.37;78.82;100909.88;31652375;28;20044;-82
2023/01/04 17:57:03;;;;;;;2.93;2.20;;;;;;;7.30;77.63;100902.50;31668282;28;20039;-78
2023/01/04 18:12:05;;;;;;;2.90;2.17;;;;;;;7.42;77.71;100904.88;31650234;28;20048;-77
2023/01/04 18:27:12;;;;;;;2.47;1.90;;;;;;;7.63;79.49;100898.81;31593476;28;20085;-76
2023/01/04 18:42:25;;;;;;;3.13;2.30;;;;;;;7.46;81.11;100897.59;31625379;28;20048;-76
2023/01/04 18:57:28;;;;;;;3.37;2.30;;;;;;;7.34;75.95;100891.72;31597521;28;20496;-78
2023/01/04 19:12:30;;;;;;;4.27;2.30;;;;;;;7.31;78.07;100890.56;31602308;28;20047;-77
2023/01/04 19:27:32;;;;;;;7.30;3.10;;;;;;;7.04;73.89;100876.50;31619907;28;20462;-80
2023/01/04 19:42:33;;;;;;;5.60;2.57;;;;;;;7.08;69.56;100882.69;31593623;28;20101;-80
2023/01/04 19:57:36;;;;;;;2.03;1.80;;;;;;;7.06;66.34;100868.03;31599078;28;20052;-79
2023/01/04 20:12:38;;;;;;;3.27;2.40;;;;;;;7.25;68.29;100842.66;31598456;28;20056;-81
2023/01/04 20:27:40;;;;;;;9.10;5.00;;;;;;;6.84;70.40;100850.91;31572267;28;20435;-80
2023/01/04 20:58:04;;;;;;;3.33;2.27;;;;;;;6.50;72.34;100839.44;31597165;28;20052;-79
2023/01/04 21:13:05;;;;;;;5.07;3.03;;;;;;;6.65;75.17;100848.41;31601624;28;20052;-79
2023/01/04 21:28:09;;;;;;;4.93;2.77;;;;;;;6.87;78.30;100831.22;31623593;28;20090;-76
2023/01/04 21:43:15;;;;;;;4.53;3.00;;;;;;;7.15;79.28;100834.13;31607908;28;20763;-77
2023/01/04 21:58:17;;;;;;;11.20;5.60;;;;;;;7.13;79.55;100833.72;31607973;28;20485;-76
2023/01/04 22:13:24;;;;;;;8.07;4.90;;;;;;;7.26;77.12;100817.22;31591437;28;20105;-79
2023/01/04 22:28:27;;;;;;;6.90;4.10;;;;;;;7.32;76.04;100810.31;31644469;28;20056;-77
2023/01/04 22:43:40;;;;;;;37.80;15.57;;;;;;;7.30;79.97;100791.00;31631557;28;20158;-77
2023/01/04 22:58:43;;;;;;;12.77;5.80;;;;;;;7.17;82.36;100790.53;31646408;28;20063;-78
2023/01/04 23:13:54;;;;;;;6.70;4.03;;;;;;;7.09;84.09;100764.66;31580880;28;20052;-76
2023/01/04 23:28:56;;;;;;;5.67;3.47;;;;;;;6.89;86.05;100761.47;31585743;28;20648;-76
2023/01/04 23:43:58;;;;;;;6.00;3.53;;;;;;;6.73;88.68;100758.28;31579039;28;20119;-76
2023/01/04 23:59:00;;;;;;;4.80;3.53;;;;;;;6.82;88.48;100761.44;31602455;28;20109;-78
